Vauxhall, New Jersey
Current Conditions -  °F | °C
As of 3:51 PM on Tuesday 21 Oct 2014 (Local Time) from KEWR Reporting Station
Broken Clouds Broken Clouds  
Wind Chill: 19°   Ceiling: 4500
Heat Index: 19°   Visibility: 10mi
Dew Point: 12°   Wind: 7mph
Humidity: 63%   Direction: NA
Pressure: 29.82"   Gusts: NA
Location:  40.73°N, 74.28°W
Report Text: KEWR 211951Z VRB06KT 10SM SCT024TCU BKN045 BKN080 BKN250 19/12 A2982 RMK AO2 SLP097 TCU N T01890117
Loading
Personal Weather Stations






























Interactive Weather Map
Tropical Storm Tracking
New forecast layout! Learn more

10-Day Weather Forecast

Advertisements
Track Severe Weather on mobile